createdAt,value
2022-12-16T00:01:27.881Z,60.80
2022-12-16T00:04:01.158Z,56.93
2022-12-16T00:06:33.898Z,56.37
2022-12-16T00:09:03.975Z,55.77
2022-12-16T00:11:33.778Z,59.70
2022-12-16T00:14:04.152Z,56.20
2022-12-16T00:16:36.317Z,54.53
2022-12-16T00:19:05.901Z,56.43
2022-12-16T00:21:33.044Z,59.90
2022-12-16T00:24:03.143Z,58.10
2022-12-16T00:26:31.261Z,59.60
2022-12-16T00:29:01.351Z,58.67
2022-12-16T00:31:28.543Z,56.47
2022-12-16T00:34:01.286Z,55.23
2022-12-16T00:36:30.416Z,57.03
2022-12-16T00:38:57.631Z,58.47
2022-12-16T00:41:24.765Z,59.00
2022-12-16T00:43:54.101Z,65.03
2022-12-16T00:46:23.982Z,54.83
2022-12-16T00:48:56.513Z,54.33
2022-12-16T00:51:23.659Z,54.90
2022-12-16T00:53:51.908Z,57.57
2022-12-16T00:56:19.459Z,54.07
2022-12-16T00:58:46.898Z,58.53
2022-12-16T01:01:14.420Z,53.47
2022-12-16T01:03:42.183Z,53.70
2022-12-16T01:06:12.117Z,54.73
2022-12-16T01:08:39.676Z,55.03
2022-12-16T01:11:07.010Z,53.33
2022-12-16T01:13:34.617Z,52.30
2022-12-16T01:16:05.237Z,53.83
2022-12-16T01:18:32.406Z,54.43
2022-12-16T01:21:07.524Z,53.37
2022-12-16T01:23:35.926Z,57.40
2022-12-16T01:26:08.500Z,51.17
2022-12-16T01:28:40.074Z,53.23
2022-12-16T01:31:07.761Z,51.73
2022-12-16T01:33:37.213Z,48.83
2022-12-16T01:36:13.229Z,49.67
2022-12-16T01:38:44.654Z,49.40
2022-12-16T01:41:17.813Z,46.87
2022-12-16T01:43:46.271Z,54.73
2022-12-16T01:46:13.439Z,53.70
2022-12-16T01:48:43.376Z,47.67
2022-12-16T01:51:30.911Z,49.57
2022-12-16T01:54:32.625Z,50.23
2022-12-16T01:57:08.735Z,48.23
2022-12-16T01:59:41.678Z,48.53
2022-12-16T02:02:11.920Z,49.80
2022-12-16T02:05:01.643Z,41.33
2022-12-16T02:07:33.517Z,50.67
2022-12-16T02:10:02.925Z,49.10
2022-12-16T02:12:41.100Z,49.07
2022-12-16T02:15:34.733Z,50.93
2022-12-16T02:18:07.875Z,50.87
2022-12-16T02:21:14.755Z,48.40
2022-12-16T02:23:54.072Z,48.13
2022-12-16T02:26:52.916Z,50.70
2022-12-16T02:29:49.528Z,52.80
2022-12-16T02:32:34.455Z,53.77
2022-12-16T02:35:04.606Z,54.90
2022-12-16T02:38:12.067Z,46.80
2022-12-16T02:40:50.685Z,54.57
2022-12-16T02:43:38.015Z,54.27
2022-12-16T02:46:13.037Z,48.27
2022-12-16T02:48:42.622Z,57.17
2022-12-16T02:51:10.115Z,53.80
2022-12-16T02:53:41.884Z,54.83
2022-12-16T02:56:20.826Z,52.97
2022-12-16T02:58:47.913Z,54.30
2022-12-16T03:01:32.294Z,50.57
2022-12-16T03:04:15.309Z,53.07
2022-12-16T03:06:49.214Z,50.57
2022-12-16T03:09:25.944Z,51.77
2022-12-16T03:11:55.359Z,48.63
2022-12-16T03:14:28.673Z,53.07
2022-12-16T03:16:58.629Z,58.83
2022-12-16T03:19:27.681Z,50.13
2022-12-16T03:21:57.141Z,53.90
2022-12-16T03:24:25.020Z,50.53
2022-12-16T03:27:18.688Z,50.53
2022-12-16T03:30:15.933Z,54.00
2022-12-16T03:32:51.819Z,52.60
2022-12-16T03:35:46.099Z,58.07
2022-12-16T03:38:14.480Z,56.57
2022-12-16T03:40:43.379Z,52.80
2022-12-16T03:43:16.206Z,51.43
2022-12-16T03:45:48.820Z,52.63
2022-12-16T03:48:22.626Z,50.77
2022-12-16T03:50:50.022Z,51.07
2022-12-16T03:53:24.639Z,49.57
2022-12-16T03:55:56.369Z,50.93
2022-12-16T03:58:23.535Z,50.40
2022-12-16T04:00:56.299Z,52.13
2022-12-16T04:03:23.465Z,50.00
2022-12-16T04:05:52.980Z,52.83
2022-12-16T04:08:22.473Z,44.37
2022-12-16T04:11:13.454Z,45.40
2022-12-16T04:14:04.134Z,41.40
2022-12-16T04:16:55.424Z,40.70
2022-12-16T04:19:47.423Z,40.33
2022-12-16T04:22:41.977Z,47.50
2022-12-16T04:25:38.478Z,47.53
2022-12-16T04:28:05.592Z,44.07
2022-12-16T04:30:36.266Z,41.13
2022-12-16T04:33:31.503Z,51.97
2022-12-16T04:36:17.187Z,50.50
2022-12-16T04:39:03.164Z,48.57
2022-12-16T04:41:48.971Z,49.33
2022-12-16T04:44:36.913Z,53.63
2022-12-16T04:47:22.863Z,51.70
2022-12-16T04:50:08.591Z,49.03
2022-12-16T04:52:54.053Z,59.20
2022-12-16T04:55:39.871Z,55.50
2022-12-16T04:58:28.153Z,55.97
2022-12-16T05:01:13.833Z,53.40
2022-12-16T05:03:59.846Z,50.87
2022-12-16T05:06:47.472Z,48.27
2022-12-16T05:09:33.093Z,47.20
2022-12-16T05:12:23.537Z,49.17
2022-12-16T05:15:09.546Z,51.93
2022-12-16T05:17:57.395Z,47.87
2022-12-16T05:20:45.671Z,52.23
2022-12-16T05:23:31.490Z,47.97
2022-12-16T05:26:22.071Z,49.57
2022-12-16T05:29:07.979Z,49.40
2022-12-16T05:31:53.446Z,45.67
2022-12-16T05:34:39.474Z,48.77
2022-12-16T05:37:25.304Z,43.40
2022-12-16T05:40:10.848Z,47.83
2022-12-16T05:42:56.461Z,61.23
2022-12-16T05:45:42.104Z,52.80
2022-12-16T05:48:29.841Z,55.87
2022-12-16T05:51:18.030Z,54.23
2022-12-16T05:54:03.741Z,53.77
2022-12-16T05:56:49.347Z,54.53
2022-12-16T05:59:37.507Z,51.33
2022-12-16T06:02:24.282Z,50.40
2022-12-16T06:05:12.662Z,47.50
2022-12-16T06:07:58.658Z,59.43
2022-12-16T06:10:43.959Z,48.20
2022-12-16T06:13:29.714Z,47.30
2022-12-16T06:16:15.929Z,49.77
2022-12-16T06:19:03.757Z,46.73
2022-12-16T06:21:49.261Z,52.53
2022-12-16T06:24:34.595Z,50.93
2022-12-16T06:27:22.568Z,53.77
2022-12-16T06:30:08.383Z,53.60
2022-12-16T06:32:56.331Z,49.67
2022-12-16T06:35:44.144Z,60.33
2022-12-16T06:38:32.304Z,53.93
2022-12-16T06:41:18.247Z,57.93
2022-12-16T06:44:03.760Z,53.60
2022-12-16T06:46:49.463Z,55.70
2022-12-16T06:49:34.878Z,59.23
2022-12-16T06:52:20.460Z,58.50
2022-12-16T06:55:05.960Z,56.03
2022-12-16T06:57:51.426Z,53.73
2022-12-16T07:00:38.647Z,52.53
2022-12-16T07:03:26.405Z,57.67
2022-12-16T07:06:14.451Z,55.87
2022-12-16T07:09:00.138Z,53.00
2022-12-16T07:11:45.787Z,48.83
2022-12-16T07:14:31.596Z,52.83
2022-12-16T07:17:19.550Z,42.60
2022-12-16T07:20:05.009Z,41.10
2022-12-16T07:22:58.494Z,40.17
2022-12-16T07:25:44.248Z,40.10
2022-12-16T07:28:32.248Z,38.53
2022-12-16T07:31:17.940Z,38.70
2022-12-16T07:34:03.814Z,32.70
2022-12-16T07:36:52.050Z,33.30
2022-12-16T07:39:40.357Z,35.03
2022-12-16T07:42:26.299Z,33.43
2022-12-16T07:45:14.017Z,34.30
2022-12-16T07:48:07.046Z,34.90
2022-12-16T07:50:53.404Z,38.60
2022-12-16T07:53:39.734Z,34.37
2022-12-16T07:56:28.375Z,35.47
2022-12-16T07:59:14.963Z,38.67
2022-12-16T08:02:00.861Z,37.30
2022-12-16T08:04:48.863Z,38.90
2022-12-16T08:07:34.520Z,38.20
2022-12-16T08:10:26.053Z,38.83
2022-12-16T08:13:32.307Z,44.17
2022-12-16T08:16:18.260Z,39.30
2022-12-16T08:19:11.001Z,41.53
2022-12-16T08:21:57.756Z,37.87
2022-12-16T08:24:46.926Z,42.23
2022-12-16T08:27:35.531Z,41.23
2022-12-16T08:30:21.372Z,37.23
2022-12-16T08:33:18.046Z,33.90
2022-12-16T08:36:05.448Z,38.37
2022-12-16T08:38:53.973Z,34.30
2022-12-16T08:41:41.549Z,35.73
2022-12-16T08:44:27.149Z,38.80
2022-12-16T08:47:12.795Z,47.87
2022-12-16T08:50:01.622Z,37.23
2022-12-16T08:52:48.692Z,40.33
2022-12-16T08:55:36.260Z,43.43
2022-12-16T08:58:21.937Z,44.03
2022-12-16T09:01:08.225Z,44.63
2022-12-16T09:03:59.012Z,43.13
2022-12-16T09:06:44.768Z,48.87
2022-12-16T09:09:30.771Z,50.23
2022-12-16T09:12:16.224Z,45.53
2022-12-16T09:15:01.879Z,45.93
2022-12-16T09:17:47.919Z,42.43
2022-12-16T09:20:33.815Z,43.50
2022-12-16T09:23:24.308Z,42.77
2022-12-16T09:26:12.715Z,40.47
2022-12-16T09:28:58.672Z,45.27
2022-12-16T09:31:44.094Z,41.57
2022-12-16T09:34:31.948Z,39.13
2022-12-16T09:37:17.378Z,39.27
2022-12-16T09:40:05.287Z,34.83
2022-12-16T09:43:11.301Z,34.40
2022-12-16T09:46:14.725Z,39.07
2022-12-16T09:49:06.542Z,35.17
2022-12-16T09:51:57.796Z,35.70
2022-12-16T09:54:47.503Z,36.87
2022-12-16T09:57:34.787Z,37.47
2022-12-16T10:00:35.773Z,37.23
2022-12-16T10:03:34.151Z,34.63
2022-12-16T10:06:28.345Z,33.10
2022-12-16T10:09:27.252Z,34.47
2022-12-16T10:12:48.165Z,35.30
2022-12-16T10:15:38.722Z,40.13
2022-12-16T10:18:53.873Z,35.67
2022-12-16T10:21:53.391Z,34.60
2022-12-16T10:24:52.434Z,35.40
2022-12-16T10:27:54.148Z,32.53
2022-12-16T10:30:40.181Z,34.77
2022-12-16T10:33:30.364Z,33.07
2022-12-16T10:36:21.424Z,34.90
2022-12-16T10:39:16.704Z,33.63
2022-12-16T10:42:08.309Z,35.73
2022-12-16T10:45:13.249Z,33.87
2022-12-16T10:47:59.183Z,34.10
2022-12-16T10:50:47.001Z,33.77
2022-12-16T10:53:32.779Z,34.23
2022-12-16T10:56:50.465Z,32.07
2022-12-16T10:59:37.551Z,28.93
2022-12-16T11:02:43.522Z,32.80
2022-12-16T11:05:49.843Z,33.93
2022-12-16T11:08:48.997Z,35.33
2022-12-16T11:11:41.686Z,32.53
2022-12-16T11:14:50.262Z,36.17
2022-12-16T11:17:47.347Z,37.13
2022-12-16T11:20:45.862Z,34.23
2022-12-16T11:23:42.166Z,36.60
2022-12-16T11:26:37.368Z,33.40
2022-12-16T11:29:33.066Z,36.10
2022-12-16T11:32:25.207Z,35.27
2022-12-16T11:35:19.212Z,36.20
2022-12-16T11:38:06.961Z,30.20
2022-12-16T11:40:53.104Z,33.67
2022-12-16T11:43:43.933Z,29.80
2022-12-16T11:46:37.198Z,35.03
2022-12-16T11:49:30.521Z,30.37
2022-12-16T11:52:36.542Z,33.37
2022-12-16T11:56:04.494Z,32.03
2022-12-16T11:59:16.507Z,31.53
2022-12-16T12:02:17.321Z,28.10
2022-12-16T12:05:07.036Z,39.77
2022-12-16T12:08:07.950Z,35.20
2022-12-16T12:11:27.803Z,39.17
2022-12-16T12:14:20.857Z,31.00
2022-12-16T12:17:25.143Z,39.07
2022-12-16T12:20:22.774Z,35.10
2022-12-16T12:23:08.276Z,34.57
2022-12-16T12:26:26.766Z,36.17
2022-12-16T12:29:12.388Z,32.60
2022-12-16T12:32:15.115Z,34.40
2022-12-16T12:35:23.813Z,35.73
2022-12-16T12:38:20.633Z,36.83
2022-12-16T12:41:16.604Z,37.30
2022-12-16T12:44:18.514Z,41.40
2022-12-16T12:47:15.898Z,41.17
2022-12-16T12:50:20.787Z,37.27
2022-12-16T12:53:06.573Z,37.13
2022-12-16T12:56:09.148Z,33.57
2022-12-16T12:58:56.521Z,36.23
2022-12-16T13:01:50.332Z,35.53
2022-12-16T13:04:42.207Z,30.87
2022-12-16T13:07:30.685Z,31.27
2022-12-16T13:10:33.537Z,34.13
2022-12-16T13:13:34.714Z,32.17
2022-12-16T13:16:22.937Z,33.73
2022-12-16T13:19:47.461Z,35.73
2022-12-16T13:22:49.555Z,33.00
2022-12-16T13:26:08.187Z,34.20
2022-12-16T13:29:01.198Z,35.50
2022-12-16T13:31:48.741Z,30.37
2022-12-16T13:34:47.423Z,33.97
2022-12-16T13:37:45.310Z,30.77
2022-12-16T13:40:39.071Z,32.77
2022-12-16T13:43:35.950Z,28.83
2022-12-16T13:46:25.027Z,31.23
2022-12-16T13:49:10.800Z,28.00
2022-12-16T13:51:56.616Z,30.70
2022-12-16T13:54:49.534Z,31.40
2022-12-16T13:57:39.545Z,34.07
2022-12-16T14:00:37.347Z,32.90
2022-12-16T14:03:38.327Z,30.07
2022-12-16T14:06:34.648Z,29.77
2022-12-16T14:09:23.141Z,30.63
2022-12-16T14:12:21.368Z,28.70
2022-12-16T14:15:13.974Z,23.43
2022-12-16T14:18:11.060Z,28.10
2022-12-16T14:21:10.313Z,27.17
2022-12-16T14:24:15.423Z,26.47
2022-12-16T14:27:04.174Z,28.70
2022-12-16T14:29:51.147Z,25.27
2022-12-16T14:32:49.282Z,24.53
2022-12-16T14:35:42.075Z,24.97
2022-12-16T14:38:47.656Z,25.17
2022-12-16T14:41:42.055Z,22.97
2022-12-16T14:44:42.527Z,25.20
2022-12-16T14:47:39.067Z,23.30
2022-12-16T14:50:46.633Z,27.90
2022-12-16T14:53:43.359Z,24.40
2022-12-16T14:56:42.364Z,23.83
2022-12-16T14:59:35.574Z,24.57
2022-12-16T15:02:45.648Z,23.63
2022-12-16T15:05:35.454Z,24.60
2022-12-16T15:08:21.257Z,26.17
2022-12-16T15:11:09.596Z,26.13
2022-12-16T15:14:01.862Z,31.87
2022-12-16T15:16:55.170Z,27.40
2022-12-16T15:19:43.764Z,27.40
2022-12-16T15:22:41.070Z,26.00
2022-12-16T15:25:37.830Z,28.63
2022-12-16T15:28:23.929Z,24.70
2022-12-16T15:31:12.228Z,26.40
2022-12-16T15:33:57.994Z,28.27
2022-12-16T15:36:49.935Z,24.63
2022-12-16T15:39:55.889Z,29.63
2022-12-16T15:42:44.659Z,32.53
2022-12-16T15:45:50.724Z,28.53
2022-12-16T15:48:42.315Z,30.37
2022-12-16T15:51:50.276Z,32.53
2022-12-16T15:54:42.964Z,29.93
2022-12-16T15:57:53.717Z,30.37
2022-12-16T16:00:49.343Z,29.50
2022-12-16T16:03:40.690Z,33.63
2022-12-16T16:06:37.386Z,30.77
2022-12-16T16:09:45.051Z,29.27
2022-12-16T16:12:32.350Z,28.67
2022-12-16T16:15:17.971Z,33.40
2022-12-16T16:18:24.379Z,30.33
2022-12-16T16:21:10.572Z,31.37
2022-12-16T16:23:56.392Z,28.20
2022-12-16T16:26:46.047Z,28.37
2022-12-16T16:29:31.696Z,24.90
2022-12-16T16:32:17.311Z,28.73
2022-12-16T16:35:03.213Z,33.40
2022-12-16T16:37:48.841Z,33.27
2022-12-16T16:40:52.433Z,31.37
2022-12-16T16:43:41.411Z,31.83
2022-12-16T16:46:38.583Z,34.47
2022-12-16T16:49:28.945Z,35.17
2022-12-16T16:52:14.576Z,37.20
2022-12-16T16:55:02.692Z,36.30
2022-12-16T16:57:57.251Z,32.77
2022-12-16T17:00:45.845Z,32.97
2022-12-16T17:03:32.327Z,36.87
2022-12-16T17:06:20.798Z,33.97
2022-12-16T17:09:06.853Z,34.27
2022-12-16T17:11:57.377Z,31.00
2022-12-16T17:14:43.057Z,34.73
2022-12-16T17:17:29.205Z,32.03
2022-12-16T17:20:15.253Z,34.53
2022-12-16T17:23:00.878Z,33.80
2022-12-16T17:25:49.109Z,33.73
2022-12-16T17:28:34.938Z,33.57
2022-12-16T17:31:20.866Z,34.87
2022-12-16T17:34:11.638Z,33.20
2022-12-16T17:36:59.573Z,32.10
2022-12-16T17:39:47.463Z,37.40
2022-12-16T17:42:33.241Z,35.80
2022-12-16T17:45:19.350Z,36.53
2022-12-16T17:48:04.785Z,33.97
2022-12-16T17:50:50.645Z,39.43
2022-12-16T17:53:38.694Z,36.90
2022-12-16T17:56:27.314Z,37.33
2022-12-16T17:59:12.870Z,36.17
2022-12-16T18:01:58.575Z,37.03
2022-12-16T18:04:46.960Z,35.43
2022-12-16T18:07:57.559Z,41.93
2022-12-16T18:10:59.947Z,36.07
2022-12-16T18:13:48.264Z,37.53
2022-12-16T18:16:36.644Z,38.73
2022-12-16T18:19:22.382Z,36.50
2022-12-16T18:22:08.151Z,38.20
2022-12-16T18:24:53.894Z,36.50
2022-12-16T18:27:39.895Z,39.50
2022-12-16T18:30:46.174Z,38.30
2022-12-16T18:33:32.413Z,37.47
2022-12-16T18:36:20.395Z,36.63
2022-12-16T18:39:08.835Z,40.07
2022-12-16T18:42:01.616Z,39.47
2022-12-16T18:44:49.861Z,45.57
2022-12-16T18:47:35.531Z,45.83
2022-12-16T18:50:28.572Z,41.00
2022-12-16T18:53:18.792Z,43.40
2022-12-16T18:56:24.937Z,42.50
2022-12-16T18:59:10.818Z,40.50
2022-12-16T19:01:59.483Z,41.17
2022-12-16T19:04:45.393Z,41.33
2022-12-16T19:07:34.096Z,41.67
2022-12-16T19:10:22.380Z,43.20
2022-12-16T19:13:15.016Z,41.37
2022-12-16T19:16:15.969Z,43.17
2022-12-16T19:19:02.178Z,44.70
2022-12-16T19:21:52.131Z,44.33
2022-12-16T19:24:44.901Z,42.47
2022-12-16T19:27:31.581Z,40.27
2022-12-16T19:30:22.004Z,45.33
2022-12-16T19:33:10.442Z,43.10
2022-12-16T19:35:56.934Z,43.37
2022-12-16T19:38:42.957Z,40.80
2022-12-16T19:41:37.719Z,39.97
2022-12-16T19:44:25.859Z,46.33
2022-12-16T19:47:11.481Z,44.60
2022-12-16T19:50:03.150Z,41.63
2022-12-16T19:52:49.049Z,45.90
2022-12-16T19:55:35.086Z,41.43
2022-12-16T19:58:20.717Z,46.60
2022-12-16T20:01:06.679Z,44.60
2022-12-16T20:03:56.444Z,42.87
2022-12-16T20:06:45.502Z,47.43
2022-12-16T20:09:33.429Z,45.90
2022-12-16T20:12:18.862Z,42.00
2022-12-16T20:15:04.559Z,39.60
2022-12-16T20:17:50.380Z,41.33
2022-12-16T20:20:37.363Z,43.87
2022-12-16T20:23:23.129Z,39.10
2022-12-16T20:26:19.397Z,43.93
2022-12-16T20:29:07.321Z,42.10
2022-12-16T20:31:53.313Z,41.47
2022-12-16T20:34:43.766Z,40.27
2022-12-16T20:37:29.752Z,44.20
2022-12-16T20:40:18.225Z,42.30
2022-12-16T20:43:03.773Z,38.87
2022-12-16T20:45:51.893Z,44.03
2022-12-16T20:48:37.689Z,43.13
2022-12-16T20:54:32.016Z,45.73
2022-12-16T20:57:17.434Z,42.20
2022-12-16T21:00:03.128Z,41.73
2022-12-16T21:02:48.943Z,39.37
2022-12-16T21:05:36.666Z,40.97
2022-12-16T21:08:22.269Z,46.17
2022-12-16T21:11:07.736Z,46.57
2022-12-16T21:13:56.529Z,39.63
2022-12-16T21:16:42.250Z,44.50
2022-12-16T21:19:33.055Z,33.97
2022-12-16T21:22:19.875Z,44.97
2022-12-16T21:25:05.730Z,34.83
2022-12-16T21:27:53.772Z,41.87
2022-12-16T21:30:43.576Z,40.17
2022-12-16T21:33:37.694Z,39.53
2022-12-16T21:36:26.163Z,38.40
2022-12-16T21:39:12.122Z,39.33
2022-12-16T21:41:57.867Z,38.83
2022-12-16T21:44:43.684Z,43.00
2022-12-16T21:47:29.256Z,44.10
2022-12-16T21:50:17.221Z,45.97
2022-12-16T21:53:15.791Z,41.57
2022-12-16T21:56:01.566Z,40.60
2022-12-16T21:58:49.632Z,45.07
2022-12-16T22:01:35.473Z,42.40
2022-12-16T22:04:21.302Z,48.67
2022-12-16T22:07:09.973Z,46.20
2022-12-16T22:09:56.325Z,44.80
2022-12-16T22:12:44.638Z,45.73
2022-12-16T22:15:30.517Z,45.43
2022-12-16T22:18:16.231Z,48.13
2022-12-16T22:21:02.074Z,47.43
2022-12-16T22:23:48.565Z,48.33
2022-12-16T22:26:34.566Z,52.30
2022-12-16T22:29:22.431Z,50.77
2022-12-16T22:32:10.249Z,51.90
2022-12-16T22:34:58.131Z,50.30
2022-12-16T22:37:46.151Z,52.23
2022-12-16T22:40:39.723Z,49.00
2022-12-16T22:43:27.705Z,52.27
2022-12-16T22:46:20.078Z,54.17
2022-12-16T22:49:06.437Z,47.93
2022-12-16T22:51:52.455Z,52.77
2022-12-16T22:54:39.463Z,50.47
2022-12-16T22:57:29.996Z,53.83
2022-12-16T23:00:18.107Z,51.43
2022-12-16T23:03:06.183Z,51.90
2022-12-16T23:05:54.028Z,50.37
2022-12-16T23:08:40.823Z,51.90
2022-12-16T23:11:35.685Z,51.20
2022-12-16T23:14:23.726Z,47.50
2022-12-16T23:17:09.575Z,47.83
2022-12-16T23:23:01.569Z,50.43
2022-12-16T23:25:49.808Z,50.00
2022-12-16T23:28:37.981Z,47.87
2022-12-16T23:31:25.815Z,53.00
2022-12-16T23:34:11.171Z,50.77
2022-12-16T23:36:57.081Z,56.03
2022-12-16T23:39:42.840Z,53.73
2022-12-16T23:42:30.772Z,51.37
2022-12-16T23:45:16.268Z,53.93
2022-12-16T23:48:02.175Z,54.47
2022-12-16T23:50:47.452Z,50.40
2022-12-16T23:53:33.316Z,54.27
2022-12-16T23:56:20.539Z,54.33
2022-12-16T23:59:07.068Z,54.13
